Arlington, IA (50606)

9:46 AM CST on November 26, 2014 (GMT -0600)
KIASTRAW2 | Change Station
CLOSE
Current Station
Personal Weather Station
Location: Strawberry Point, IA
Elevation: 1220 ft
Nearby Weather Stations

Elev 1220 ft 42.68 °N, 91.53 °W | Updated 2 minutes ago

Overcast
Overcast
24.9 °F
Feels Like 18 °F
N
6.0
Wind Variable Wind from ENE
Gusts 10.0 mph

Today
High -- | Low -- °F
--% Chance of Precip.
Yesterday
High -- | Low -- °F
Precip. -- in
7:11 AM 4:35 PM
Waxing Crescent, 20% visible
Pressure 30.03 in
Visibility 10.0 miles
Clouds Overcast 5000 ft
Windchill 18 °F
Dew Point 22 °F
Humidity 90%
Rainfall -999.00 in
Snow Depth Not available.
UV 0 out of 12
Pollen .10 out of 12
Air Quality Not available.
Flu Activity Not available.
METAR KOLZ 261515Z AUTO 10012KT 10SM OVC050 M03/M05 A3003 RMK AO2

More Conditions Fewer Conditions

Pressure 30.03 in
Visibility 10.0 miles
Clouds Overcast 5000 ft
Windchill 18 °F
Dew Point 22 °F
Humidity 90%
Rainfall -999.00 in
Snow Depth Not available.
UV 0 out of 12
Pollen .10 out of 12
Air Quality Not available.
Flu Activity Not available.
METAR KOLZ 261515Z AUTO 10012KT 10SM OVC050 M03/M05 A3003 RMK AO2

More Conditions Fewer Conditions

Nowcast | as of 8:17 am CST on November 26, 2014

Light snow will continue to fall this morning...off and on. An inch of new snow is possible in some areas through noon leading to some snow covered roads.

×

10-Day Weather Forecast

Almanac

Astronomy

Nov. 26, 2014 Rise Set
Actual Time
Civil Twilight
Nautical Twilight
Astronomical Twilight
Moon
Length of Visible Light
Length of Day
Tomorrow will be .
, % of the Moon is Illuminated

Today's Extremes

State Highs State Lows

Community

WunderPhotos

Upload Photos

1,773,773 photos uploaded!

WunderBlogs® & News

Nearby

Air Quality

  Air Quality AQ Index Pollutant
Not available.

Snow Depth

Station Depth Elevation

Earthquake Activity

City Distance Mag. Time & Date
Minimum magnitude displayed is 2.5.

Coastal Water Temperatures

Place Temperature

Nearby Weather Stations